sensor_id;sensor_type;location;lat;lon;timestamp;P1;durP1;ratioP1;P2;durP2;ratioP2
36815;SDS011;22760;51.910;4.474;2022-09-09T00:00:53;9.27;;;5.18;;
36815;SDS011;22760;51.910;4.474;2022-09-09T00:03:36;9.25;;;4.80;;
36815;SDS011;22760;51.910;4.474;2022-09-09T00:06:11;8.13;;;4.35;;
36815;SDS011;22760;51.910;4.474;2022-09-09T00:08:50;13.38;;;5.60;;
36815;SDS011;22760;51.910;4.474;2022-09-09T00:11:24;9.65;;;5.30;;
36815;SDS011;22760;51.910;4.474;2022-09-09T00:13:54;13.35;;;5.40;;
36815;SDS011;22760;51.910;4.474;2022-09-09T00:16:27;10.32;;;5.90;;
36815;SDS011;22760;51.910;4.474;2022-09-09T00:19:00;10.20;;;6.03;;
36815;SDS011;22760;51.910;4.474;2022-09-09T00:21:32;9.63;;;6.45;;
36815;SDS011;22760;51.910;4.474;2022-09-09T00:24:00;11.52;;;6.05;;
36815;SDS011;22760;51.910;4.474;2022-09-09T00:26:40;11.57;;;6.18;;
36815;SDS011;22760;51.910;4.474;2022-09-09T00:31:40;11.10;;;6.32;;
36815;SDS011;22760;51.910;4.474;2022-09-09T00:34:11;12.55;;;6.82;;
36815;SDS011;22760;51.910;4.474;2022-09-09T00:36:39;15.68;;;6.93;;
36815;SDS011;22760;51.910;4.474;2022-09-09T00:39:09;9.52;;;6.22;;
36815;SDS011;22760;51.910;4.474;2022-09-09T00:41:46;13.15;;;6.25;;
36815;SDS011;22760;51.910;4.474;2022-09-09T00:44:25;11.60;;;5.78;;
36815;SDS011;22760;51.910;4.474;2022-09-09T00:50:09;9.52;;;5.82;;
36815;SDS011;22760;51.910;4.474;2022-09-09T00:53:03;13.75;;;6.13;;
36815;SDS011;22760;51.910;4.474;2022-09-09T00:55:40;11.00;;;5.57;;
36815;SDS011;22760;51.910;4.474;2022-09-09T00:58:13;12.52;;;7.30;;
36815;SDS011;22760;51.910;4.474;2022-09-09T01:00:41;13.32;;;5.88;;
36815;SDS011;22760;51.910;4.474;2022-09-09T01:03:13;11.75;;;5.72;;
36815;SDS011;22760;51.910;4.474;2022-09-09T01:06:00;12.88;;;5.45;;
36815;SDS011;22760;51.910;4.474;2022-09-09T01:08:36;9.88;;;5.43;;
36815;SDS011;22760;51.910;4.474;2022-09-09T01:11:15;11.10;;;6.15;;
36815;SDS011;22760;51.910;4.474;2022-09-09T01:13:48;9.77;;;5.05;;
36815;SDS011;22760;51.910;4.474;2022-09-09T01:16:19;7.43;;;4.22;;
36815;SDS011;22760;51.910;4.474;2022-09-09T01:18:48;10.45;;;4.30;;
36815;SDS011;22760;51.910;4.474;2022-09-09T01:21:21;10.20;;;4.03;;
36815;SDS011;22760;51.910;4.474;2022-09-09T01:24:09;11.15;;;3.75;;
36815;SDS011;22760;51.910;4.474;2022-09-09T01:26:46;9.95;;;3.72;;
36815;SDS011;22760;51.910;4.474;2022-09-09T01:29:16;9.75;;;3.85;;
36815;SDS011;22760;51.910;4.474;2022-09-09T01:31:51;10.27;;;4.00;;
36815;SDS011;22760;51.910;4.474;2022-09-09T01:34:20;6.60;;;3.25;;
36815;SDS011;22760;51.910;4.474;2022-09-09T01:36:49;10.93;;;4.30;;
36815;SDS011;22760;51.910;4.474;2022-09-09T01:39:21;4.93;;;3.00;;
36815;SDS011;22760;51.910;4.474;2022-09-09T01:41:49;11.25;;;3.28;;
36815;SDS011;22760;51.910;4.474;2022-09-09T01:44:16;7.72;;;2.88;;
36815;SDS011;22760;51.910;4.474;2022-09-09T01:46:44;9.20;;;2.70;;
36815;SDS011;22760;51.910;4.474;2022-09-09T01:49:11;8.65;;;2.60;;
36815;SDS011;22760;51.910;4.474;2022-09-09T01:51:38;8.70;;;2.38;;
36815;SDS011;22760;51.910;4.474;2022-09-09T01:54:07;7.63;;;2.10;;
36815;SDS011;22760;51.910;4.474;2022-09-09T01:56:35;3.90;;;1.85;;
36815;SDS011;22760;51.910;4.474;2022-09-09T01:59:14;5.38;;;2.20;;
36815;SDS011;22760;51.910;4.474;2022-09-09T02:01:53;6.30;;;2.10;;
36815;SDS011;22760;51.910;4.474;2022-09-09T02:04:32;8.05;;;3.20;;
36815;SDS011;22760;51.910;4.474;2022-09-09T02:07:05;8.35;;;3.22;;
36815;SDS011;22760;51.910;4.474;2022-09-09T02:09:41;7.28;;;3.28;;
36815;SDS011;22760;51.910;4.474;2022-09-09T02:12:13;7.97;;;3.22;;
36815;SDS011;22760;51.910;4.474;2022-09-09T02:14:46;6.53;;;3.25;;
36815;SDS011;22760;51.910;4.474;2022-09-09T02:17:17;10.27;;;3.80;;
36815;SDS011;22760;51.910;4.474;2022-09-09T02:19:51;8.35;;;2.88;;
36815;SDS011;22760;51.910;4.474;2022-09-09T02:22:23;7.85;;;3.22;;
36815;SDS011;22760;51.910;4.474;2022-09-09T02:24:52;7.70;;;3.53;;
36815;SDS011;22760;51.910;4.474;2022-09-09T02:29:52;7.35;;;3.83;;
36815;SDS011;22760;51.910;4.474;2022-09-09T02:32:22;9.03;;;4.10;;
36815;SDS011;22760;51.910;4.474;2022-09-09T02:34:50;11.55;;;4.05;;
36815;SDS011;22760;51.910;4.474;2022-09-09T02:37:21;10.65;;;3.92;;
36815;SDS011;22760;51.910;4.474;2022-09-09T02:39:53;12.57;;;3.90;;
36815;SDS011;22760;51.910;4.474;2022-09-09T02:42:20;9.23;;;3.75;;
36815;SDS011;22760;51.910;4.474;2022-09-09T02:44:47;7.18;;;3.45;;
36815;SDS011;22760;51.910;4.474;2022-09-09T02:47:18;5.85;;;3.40;;
36815;SDS011;22760;51.910;4.474;2022-09-09T02:49:57;7.38;;;3.33;;
36815;SDS011;22760;51.910;4.474;2022-09-09T02:52:36;10.63;;;3.65;;
36815;SDS011;22760;51.910;4.474;2022-09-09T02:55:12;6.95;;;3.67;;
36815;SDS011;22760;51.910;4.474;2022-09-09T02:57:44;9.75;;;3.72;;
36815;SDS011;22760;51.910;4.474;2022-09-09T03:00:14;8.98;;;3.65;;
36815;SDS011;22760;51.910;4.474;2022-09-09T03:02:42;10.23;;;3.15;;
36815;SDS011;22760;51.910;4.474;2022-09-09T03:05:10;5.80;;;2.88;;
36815;SDS011;22760;51.910;4.474;2022-09-09T03:07:38;6.88;;;2.95;;
36815;SDS011;22760;51.910;4.474;2022-09-09T03:10:05;9.75;;;3.63;;
36815;SDS011;22760;51.910;4.474;2022-09-09T03:12:33;9.75;;;3.05;;
36815;SDS011;22760;51.910;4.474;2022-09-09T03:14:59;6.18;;;2.95;;
36815;SDS011;22760;51.910;4.474;2022-09-09T03:17:26;12.13;;;3.92;;
36815;SDS011;22760;51.910;4.474;2022-09-09T03:19:54;5.85;;;2.95;;
36815;SDS011;22760;51.910;4.474;2022-09-09T03:22:22;10.27;;;3.53;;
36815;SDS011;22760;51.910;4.474;2022-09-09T03:24:50;8.77;;;2.30;;
36815;SDS011;22760;51.910;4.474;2022-09-09T03:27:17;10.88;;;3.28;;
36815;SDS011;22760;51.910;4.474;2022-09-09T03:29:44;9.52;;;2.70;;
36815;SDS011;22760;51.910;4.474;2022-09-09T03:32:12;8.43;;;3.20;;
36815;SDS011;22760;51.910;4.474;2022-09-09T03:34:42;9.38;;;3.72;;
36815;SDS011;22760;51.910;4.474;2022-09-09T03:37:10;7.82;;;2.85;;
36815;SDS011;22760;51.910;4.474;2022-09-09T03:39:37;6.75;;;2.50;;
36815;SDS011;22760;51.910;4.474;2022-09-09T03:42:04;8.20;;;2.70;;
36815;SDS011;22760;51.910;4.474;2022-09-09T03:44:31;11.15;;;3.70;;
36815;SDS011;22760;51.910;4.474;2022-09-09T03:46:58;10.13;;;3.00;;
36815;SDS011;22760;51.910;4.474;2022-09-09T03:49:25;11.93;;;3.00;;
36815;SDS011;22760;51.910;4.474;2022-09-09T03:51:53;8.18;;;2.65;;
36815;SDS011;22760;51.910;4.474;2022-09-09T03:54:22;12.75;;;2.95;;
36815;SDS011;22760;51.910;4.474;2022-09-09T03:56:49;9.10;;;3.15;;
36815;SDS011;22760;51.910;4.474;2022-09-09T03:59:16;7.32;;;2.78;;
36815;SDS011;22760;51.910;4.474;2022-09-09T04:01:43;8.68;;;2.50;;
36815;SDS011;22760;51.910;4.474;2022-09-09T04:04:10;9.07;;;3.05;;
36815;SDS011;22760;51.910;4.474;2022-09-09T04:06:37;11.90;;;2.95;;
36815;SDS011;22760;51.910;4.474;2022-09-09T04:09:04;11.00;;;3.13;;
36815;SDS011;22760;51.910;4.474;2022-09-09T04:11:32;8.43;;;3.38;;
36815;SDS011;22760;51.910;4.474;2022-09-09T04:13:59;10.02;;;2.85;;
36815;SDS011;22760;51.910;4.474;2022-09-09T04:16:25;7.28;;;2.97;;
36815;SDS011;22760;51.910;4.474;2022-09-09T04:18:52;8.25;;;2.97;;
36815;SDS011;22760;51.910;4.474;2022-09-09T04:21:21;14.65;;;3.42;;
36815;SDS011;22760;51.910;4.474;2022-09-09T04:23:48;8.02;;;3.17;;
36815;SDS011;22760;51.910;4.474;2022-09-09T04:26:14;7.85;;;2.92;;
36815;SDS011;22760;51.910;4.474;2022-09-09T04:28:43;12.45;;;2.65;;
36815;SDS011;22760;51.910;4.474;2022-09-09T04:31:10;12.43;;;3.00;;
36815;SDS011;22760;51.910;4.474;2022-09-09T04:33:42;8.75;;;3.00;;
36815;SDS011;22760;51.910;4.474;2022-09-09T04:36:09;6.78;;;2.90;;
36815;SDS011;22760;51.910;4.474;2022-09-09T04:38:35;11.70;;;2.90;;
36815;SDS011;22760;51.910;4.474;2022-09-09T04:41:02;9.05;;;3.00;;
36815;SDS011;22760;51.910;4.474;2022-09-09T04:43:29;11.02;;;3.50;;
36815;SDS011;22760;51.910;4.474;2022-09-09T04:45:58;12.70;;;3.90;;
36815;SDS011;22760;51.910;4.474;2022-09-09T04:48:24;10.52;;;3.33;;
36815;SDS011;22760;51.910;4.474;2022-09-09T04:50:56;7.90;;;3.63;;
36815;SDS011;22760;51.910;4.474;2022-09-09T04:53:23;10.30;;;3.57;;
36815;SDS011;22760;51.910;4.474;2022-09-09T04:55:50;9.93;;;4.03;;
36815;SDS011;22760;51.910;4.474;2022-09-09T04:58:17;13.60;;;3.08;;
36815;SDS011;22760;51.910;4.474;2022-09-09T05:00:46;11.98;;;3.55;;
36815;SDS011;22760;51.910;4.474;2022-09-09T05:03:14;10.50;;;3.35;;
36815;SDS011;22760;51.910;4.474;2022-09-09T05:05:41;7.00;;;3.13;;
36815;SDS011;22760;51.910;4.474;2022-09-09T05:08:08;9.27;;;3.30;;
36815;SDS011;22760;51.910;4.474;2022-09-09T05:10:36;12.80;;;4.40;;
36815;SDS011;22760;51.910;4.474;2022-09-09T05:13:04;8.52;;;3.25;;
36815;SDS011;22760;51.910;4.474;2022-09-09T05:15:32;11.38;;;3.50;;
36815;SDS011;22760;51.910;4.474;2022-09-09T05:18:00;7.75;;;2.85;;
36815;SDS011;22760;51.910;4.474;2022-09-09T05:20:29;11.43;;;3.78;;
36815;SDS011;22760;51.910;4.474;2022-09-09T05:22:56;9.25;;;3.15;;
36815;SDS011;22760;51.910;4.474;2022-09-09T05:25:23;17.80;;;4.53;;
36815;SDS011;22760;51.910;4.474;2022-09-09T05:27:50;10.65;;;4.05;;
36815;SDS011;22760;51.910;4.474;2022-09-09T05:30:18;10.85;;;3.38;;
36815;SDS011;22760;51.910;4.474;2022-09-09T05:32:45;11.63;;;3.95;;
36815;SDS011;22760;51.910;4.474;2022-09-09T05:35:12;16.10;;;3.17;;
36815;SDS011;22760;51.910;4.474;2022-09-09T05:37:41;10.63;;;3.15;;
36815;SDS011;22760;51.910;4.474;2022-09-09T05:40:08;12.80;;;3.95;;
36815;SDS011;22760;51.910;4.474;2022-09-09T05:42:36;10.90;;;3.55;;
36815;SDS011;22760;51.910;4.474;2022-09-09T05:45:04;7.13;;;2.72;;
36815;SDS011;22760;51.910;4.474;2022-09-09T05:47:32;12.43;;;3.00;;
36815;SDS011;22760;51.910;4.474;2022-09-09T05:49:59;10.68;;;3.05;;
36815;SDS011;22760;51.910;4.474;2022-09-09T05:52:26;7.28;;;2.85;;
36815;SDS011;22760;51.910;4.474;2022-09-09T05:54:55;11.50;;;3.03;;
36815;SDS011;22760;51.910;4.474;2022-09-09T05:57:22;13.18;;;3.08;;
36815;SDS011;22760;51.910;4.474;2022-09-09T05:59:48;11.27;;;3.13;;
36815;SDS011;22760;51.910;4.474;2022-09-09T06:02:15;13.50;;;2.67;;
36815;SDS011;22760;51.910;4.474;2022-09-09T06:04:42;11.00;;;3.17;;
36815;SDS011;22760;51.910;4.474;2022-09-09T06:07:09;13.55;;;3.25;;
36815;SDS011;22760;51.910;4.474;2022-09-09T06:09:36;13.15;;;2.70;;
36815;SDS011;22760;51.910;4.474;2022-09-09T06:12:04;11.38;;;2.70;;
36815;SDS011;22760;51.910;4.474;2022-09-09T06:14:31;8.93;;;2.60;;
36815;SDS011;22760;51.910;4.474;2022-09-09T06:16:58;12.75;;;3.00;;
36815;SDS011;22760;51.910;4.474;2022-09-09T06:19:25;10.35;;;2.80;;
36815;SDS011;22760;51.910;4.474;2022-09-09T06:21:52;15.02;;;2.63;;
36815;SDS011;22760;51.910;4.474;2022-09-09T06:24:19;13.68;;;3.25;;
36815;SDS011;22760;51.910;4.474;2022-09-09T06:26:47;9.35;;;3.10;;
36815;SDS011;22760;51.910;4.474;2022-09-09T06:29:15;11.02;;;2.58;;
36815;SDS011;22760;51.910;4.474;2022-09-09T06:31:42;9.35;;;2.60;;
36815;SDS011;22760;51.910;4.474;2022-09-09T06:34:09;12.35;;;2.60;;
36815;SDS011;22760;51.910;4.474;2022-09-09T06:36:37;16.10;;;2.67;;
36815;SDS011;22760;51.910;4.474;2022-09-09T06:39:04;15.18;;;3.65;;
36815;SDS011;22760;51.910;4.474;2022-09-09T06:41:32;12.50;;;3.75;;
36815;SDS011;22760;51.910;4.474;2022-09-09T06:43:59;11.77;;;2.70;;
36815;SDS011;22760;51.910;4.474;2022-09-09T06:46:28;11.80;;;2.65;;
36815;SDS011;22760;51.910;4.474;2022-09-09T06:48:57;9.35;;;3.05;;
36815;SDS011;22760;51.910;4.474;2022-09-09T06:51:25;12.02;;;2.85;;
36815;SDS011;22760;51.910;4.474;2022-09-09T06:53:53;15.30;;;3.25;;
36815;SDS011;22760;51.910;4.474;2022-09-09T06:56:22;10.07;;;3.05;;
36815;SDS011;22760;51.910;4.474;2022-09-09T06:58:50;12.55;;;3.05;;
36815;SDS011;22760;51.910;4.474;2022-09-09T07:01:18;11.88;;;3.20;;
36815;SDS011;22760;51.910;4.474;2022-09-09T07:03:48;15.82;;;2.83;;
36815;SDS011;22760;51.910;4.474;2022-09-09T07:06:16;12.65;;;2.72;;
36815;SDS011;22760;51.910;4.474;2022-09-09T07:08:48;12.82;;;3.30;;
36815;SDS011;22760;51.910;4.474;2022-09-09T07:11:16;13.85;;;2.63;;
36815;SDS011;22760;51.910;4.474;2022-09-09T07:13:43;11.68;;;3.22;;
36815;SDS011;22760;51.910;4.474;2022-09-09T07:16:10;9.30;;;3.03;;
36815;SDS011;22760;51.910;4.474;2022-09-09T07:18:38;11.40;;;2.78;;
36815;SDS011;22760;51.910;4.474;2022-09-09T07:21:08;19.23;;;3.47;;
36815;SDS011;22760;51.910;4.474;2022-09-09T07:23:37;11.57;;;3.13;;
36815;SDS011;22760;51.910;4.474;2022-09-09T07:26:06;15.98;;;3.42;;
36815;SDS011;22760;51.910;4.474;2022-09-09T07:28:34;13.65;;;3.53;;
36815;SDS011;22760;51.910;4.474;2022-09-09T07:31:01;8.82;;;2.95;;
36815;SDS011;22760;51.910;4.474;2022-09-09T07:33:30;16.77;;;4.00;;
36815;SDS011;22760;51.910;4.474;2022-09-09T07:36:02;14.65;;;3.00;;
36815;SDS011;22760;51.910;4.474;2022-09-09T07:38:36;13.25;;;2.80;;
36815;SDS011;22760;51.910;4.474;2022-09-09T07:41:05;12.43;;;2.70;;
36815;SDS011;22760;51.910;4.474;2022-09-09T07:43:34;9.45;;;2.65;;
36815;SDS011;22760;51.910;4.474;2022-09-09T07:46:00;13.82;;;3.15;;
36815;SDS011;22760;51.910;4.474;2022-09-09T07:48:28;15.68;;;3.30;;
36815;SDS011;22760;51.910;4.474;2022-09-09T07:51:05;15.13;;;3.28;;
36815;SDS011;22760;51.910;4.474;2022-09-09T07:53:37;13.43;;;3.67;;
36815;SDS011;22760;51.910;4.474;2022-09-09T07:56:05;14.73;;;3.88;;
36815;SDS011;22760;51.910;4.474;2022-09-09T07:58:34;11.30;;;2.70;;
36815;SDS011;22760;51.910;4.474;2022-09-09T08:01:05;9.85;;;2.67;;
36815;SDS011;22760;51.910;4.474;2022-09-09T08:03:33;18.45;;;3.10;;
36815;SDS011;22760;51.910;4.474;2022-09-09T08:06:01;8.20;;;2.42;;
36815;SDS011;22760;51.910;4.474;2022-09-09T08:08:28;14.05;;;3.17;;
36815;SDS011;22760;51.910;4.474;2022-09-09T08:11:02;13.75;;;3.25;;
36815;SDS011;22760;51.910;4.474;2022-09-09T08:13:32;12.07;;;3.03;;
36815;SDS011;22760;51.910;4.474;2022-09-09T08:16:06;11.45;;;2.67;;
36815;SDS011;22760;51.910;4.474;2022-09-09T08:18:34;11.40;;;2.97;;
36815;SDS011;22760;51.910;4.474;2022-09-09T08:21:05;10.48;;;2.97;;
36815;SDS011;22760;51.910;4.474;2022-09-09T08:23:33;9.70;;;2.65;;
36815;SDS011;22760;51.910;4.474;2022-09-09T08:26:05;11.45;;;2.60;;
36815;SDS011;22760;51.910;4.474;2022-09-09T08:28:34;9.77;;;2.92;;
36815;SDS011;22760;51.910;4.474;2022-09-09T08:31:07;6.85;;;2.30;;
36815;SDS011;22760;51.910;4.474;2022-09-09T08:33:36;12.13;;;3.20;;
36815;SDS011;22760;51.910;4.474;2022-09-09T08:36:03;11.60;;;2.90;;
36815;SDS011;22760;51.910;4.474;2022-09-09T08:38:31;15.05;;;4.60;;
36815;SDS011;22760;51.910;4.474;2022-09-09T08:41:02;13.48;;;3.10;;
36815;SDS011;22760;51.910;4.474;2022-09-09T08:43:42;13.82;;;3.42;;
36815;SDS011;22760;51.910;4.474;2022-09-09T08:46:13;10.43;;;3.28;;
36815;SDS011;22760;51.910;4.474;2022-09-09T08:48:48;14.15;;;3.10;;
36815;SDS011;22760;51.910;4.474;2022-09-09T08:51:23;13.52;;;2.90;;
36815;SDS011;22760;51.910;4.474;2022-09-09T08:53:53;20.73;;;4.57;;
36815;SDS011;22760;51.910;4.474;2022-09-09T08:56:26;11.80;;;3.05;;
36815;SDS011;22760;51.910;4.474;2022-09-09T08:58:57;10.23;;;2.55;;
36815;SDS011;22760;51.910;4.474;2022-09-09T09:01:36;11.20;;;3.58;;
36815;SDS011;22760;51.910;4.474;2022-09-09T09:04:13;9.18;;;3.00;;
36815;SDS011;22760;51.910;4.474;2022-09-09T09:06:54;8.52;;;2.53;;
36815;SDS011;22760;51.910;4.474;2022-09-09T09:09:31;8.05;;;2.45;;
36815;SDS011;22760;51.910;4.474;2022-09-09T09:12:10;17.42;;;3.08;;
36815;SDS011;22760;51.910;4.474;2022-09-09T09:14:42;11.63;;;3.60;;
36815;SDS011;22760;51.910;4.474;2022-09-09T09:17:11;10.68;;;2.47;;
36815;SDS011;22760;51.910;4.474;2022-09-09T09:19:40;11.60;;;2.47;;
36815;SDS011;22760;51.910;4.474;2022-09-09T09:22:11;8.80;;;2.80;;
36815;SDS011;22760;51.910;4.474;2022-09-09T09:24:45;10.85;;;2.85;;
36815;SDS011;22760;51.910;4.474;2022-09-09T09:27:21;12.75;;;3.55;;
36815;SDS011;22760;51.910;4.474;2022-09-09T09:29:55;10.10;;;2.97;;
36815;SDS011;22760;51.910;4.474;2022-09-09T09:32:24;9.85;;;3.00;;
36815;SDS011;22760;51.910;4.474;2022-09-09T09:34:53;13.80;;;3.92;;
36815;SDS011;22760;51.910;4.474;2022-09-09T09:37:23;12.30;;;3.45;;
36815;SDS011;22760;51.910;4.474;2022-09-09T09:39:54;11.20;;;3.38;;
36815;SDS011;22760;51.910;4.474;2022-09-09T09:42:22;19.85;;;3.92;;
36815;SDS011;22760;51.910;4.474;2022-09-09T09:44:49;12.95;;;3.85;;
36815;SDS011;22760;51.910;4.474;2022-09-09T09:47:19;10.13;;;3.50;;
36815;SDS011;22760;51.910;4.474;2022-09-09T09:49:51;19.40;;;4.20;;
36815;SDS011;22760;51.910;4.474;2022-09-09T09:52:20;17.50;;;3.63;;
36815;SDS011;22760;51.910;4.474;2022-09-09T09:54:49;15.10;;;3.28;;
36815;SDS011;22760;51.910;4.474;2022-09-09T09:57:16;13.80;;;3.65;;
36815;SDS011;22760;51.910;4.474;2022-09-09T09:59:59;12.65;;;3.10;;
36815;SDS011;22760;51.910;4.474;2022-09-09T10:02:36;10.77;;;3.13;;
36815;SDS011;22760;51.910;4.474;2022-09-09T10:05:06;10.93;;;3.35;;
36815;SDS011;22760;51.910;4.474;2022-09-09T10:07:40;13.93;;;3.60;;
36815;SDS011;22760;51.910;4.474;2022-09-09T10:10:12;13.38;;;4.32;;
36815;SDS011;22760;51.910;4.474;2022-09-09T10:12:47;11.18;;;3.75;;
36815;SDS011;22760;51.910;4.474;2022-09-09T10:15:29;10.73;;;3.60;;
36815;SDS011;22760;51.910;4.474;2022-09-09T10:18:04;22.60;;;5.93;;
36815;SDS011;22760;51.910;4.474;2022-09-09T10:20:44;13.43;;;3.92;;
36815;SDS011;22760;51.910;4.474;2022-09-09T10:23:21;18.73;;;4.30;;
36815;SDS011;22760;51.910;4.474;2022-09-09T10:25:59;11.18;;;3.88;;
36815;SDS011;22760;51.910;4.474;2022-09-09T10:28:41;15.70;;;3.53;;
36815;SDS011;22760;51.910;4.474;2022-09-09T10:31:23;10.82;;;3.50;;
36815;SDS011;22760;51.910;4.474;2022-09-09T10:33:57;12.10;;;3.50;;
36815;SDS011;22760;51.910;4.474;2022-09-09T10:36:34;15.57;;;4.20;;
36815;SDS011;22760;51.910;4.474;2022-09-09T10:39:12;11.00;;;3.97;;
36815;SDS011;22760;51.910;4.474;2022-09-09T10:41:48;13.68;;;3.60;;
36815;SDS011;22760;51.910;4.474;2022-09-09T10:47:31;12.23;;;3.55;;
36815;SDS011;22760;51.910;4.474;2022-09-09T10:50:18;12.07;;;3.10;;
36815;SDS011;22760;51.910;4.474;2022-09-09T10:53:08;12.65;;;3.55;;
36815;SDS011;22760;51.910;4.474;2022-09-09T10:55:41;12.38;;;3.97;;
36815;SDS011;22760;51.910;4.474;2022-09-09T10:58:10;9.77;;;3.67;;
36815;SDS011;22760;51.910;4.474;2022-09-09T11:00:41;10.35;;;4.75;;
36815;SDS011;22760;51.910;4.474;2022-09-09T11:03:14;14.65;;;4.63;;
36815;SDS011;22760;51.910;4.474;2022-09-09T11:05:46;13.57;;;4.25;;
36815;SDS011;22760;51.910;4.474;2022-09-09T11:08:18;19.10;;;5.00;;
36815;SDS011;22760;51.910;4.474;2022-09-09T11:10:48;7.45;;;3.65;;
36815;SDS011;22760;51.910;4.474;2022-09-09T11:13:23;13.85;;;4.35;;
36815;SDS011;22760;51.910;4.474;2022-09-09T11:15:57;6.53;;;3.53;;
36815;SDS011;22760;51.910;4.474;2022-09-09T11:18:29;10.82;;;4.50;;
36815;SDS011;22760;51.910;4.474;2022-09-09T11:21:12;9.65;;;4.22;;
36815;SDS011;22760;51.910;4.474;2022-09-09T11:23:48;14.02;;;4.75;;
36815;SDS011;22760;51.910;4.474;2022-09-09T11:26:21;9.90;;;4.00;;
36815;SDS011;22760;51.910;4.474;2022-09-09T11:28:57;12.30;;;4.30;;
36815;SDS011;22760;51.910;4.474;2022-09-09T11:31:43;9.52;;;3.85;;
36815;SDS011;22760;51.910;4.474;2022-09-09T11:34:16;14.55;;;4.03;;
36815;SDS011;22760;51.910;4.474;2022-09-09T11:36:55;9.63;;;3.10;;
36815;SDS011;22760;51.910;4.474;2022-09-09T11:40:00;17.92;;;4.35;;
36815;SDS011;22760;51.910;4.474;2022-09-09T11:42:39;13.85;;;4.07;;
36815;SDS011;22760;51.910;4.474;2022-09-09T11:45:10;14.15;;;4.32;;
36815;SDS011;22760;51.910;4.474;2022-09-09T11:53:17;9.57;;;3.70;;
36815;SDS011;22760;51.910;4.474;2022-09-09T11:55:47;12.10;;;5.05;;
36815;SDS011;22760;51.910;4.474;2022-09-09T11:58:25;10.27;;;4.50;;
36815;SDS011;22760;51.910;4.474;2022-09-09T12:00:54;10.75;;;4.45;;
36815;SDS011;22760;51.910;4.474;2022-09-09T12:03:37;16.17;;;5.53;;
36815;SDS011;22760;51.910;4.474;2022-09-09T12:06:10;18.77;;;5.85;;
36815;SDS011;22760;51.910;4.474;2022-09-09T12:08:41;12.68;;;5.18;;
36815;SDS011;22760;51.910;4.474;2022-09-09T12:11:09;14.13;;;5.60;;
36815;SDS011;22760;51.910;4.474;2022-09-09T12:13:37;19.35;;;5.57;;
36815;SDS011;22760;51.910;4.474;2022-09-09T12:16:04;15.10;;;6.35;;
36815;SDS011;22760;51.910;4.474;2022-09-09T12:18:32;19.73;;;6.38;;
36815;SDS011;22760;51.910;4.474;2022-09-09T12:21:03;16.55;;;6.22;;
36815;SDS011;22760;51.910;4.474;2022-09-09T12:23:40;14.40;;;6.00;;
36815;SDS011;22760;51.910;4.474;2022-09-09T12:26:28;14.70;;;5.80;;
36815;SDS011;22760;51.910;4.474;2022-09-09T12:29:02;11.18;;;5.03;;
36815;SDS011;22760;51.910;4.474;2022-09-09T12:31:39;13.77;;;5.80;;
36815;SDS011;22760;51.910;4.474;2022-09-09T12:34:10;11.70;;;6.45;;
36815;SDS011;22760;51.910;4.474;2022-09-09T12:36:43;11.75;;;6.15;;
36815;SDS011;22760;51.910;4.474;2022-09-09T12:39:17;15.55;;;6.13;;
36815;SDS011;22760;51.910;4.474;2022-09-09T12:41:51;14.02;;;6.50;;
36815;SDS011;22760;51.910;4.474;2022-09-09T12:44:22;13.60;;;6.53;;
36815;SDS011;22760;51.910;4.474;2022-09-09T12:46:49;19.42;;;6.65;;
36815;SDS011;22760;51.910;4.474;2022-09-09T12:49:25;17.48;;;6.68;;
36815;SDS011;22760;51.910;4.474;2022-09-09T12:51:56;14.05;;;6.90;;
36815;SDS011;22760;51.910;4.474;2022-09-09T12:54:25;11.40;;;5.70;;
36815;SDS011;22760;51.910;4.474;2022-09-09T12:56:53;10.15;;;5.40;;
36815;SDS011;22760;51.910;4.474;2022-09-09T12:59:23;8.52;;;4.57;;
36815;SDS011;22760;51.910;4.474;2022-09-09T13:01:55;6.90;;;2.90;;
36815;SDS011;22760;51.910;4.474;2022-09-09T13:04:22;9.07;;;3.63;;
36815;SDS011;22760;51.910;4.474;2022-09-09T13:06:49;6.15;;;2.83;;
36815;SDS011;22760;51.910;4.474;2022-09-09T13:09:17;6.72;;;3.90;;
36815;SDS011;22760;51.910;4.474;2022-09-09T13:11:46;7.63;;;3.53;;
36815;SDS011;22760;51.910;4.474;2022-09-09T13:14:17;11.27;;;3.95;;
36815;SDS011;22760;51.910;4.474;2022-09-09T13:16:54;10.18;;;4.25;;
36815;SDS011;22760;51.910;4.474;2022-09-09T13:19:23;6.72;;;3.47;;
36815;SDS011;22760;51.910;4.474;2022-09-09T13:21:52;9.98;;;3.65;;
36815;SDS011;22760;51.910;4.474;2022-09-09T13:24:25;9.35;;;3.97;;
36815;SDS011;22760;51.910;4.474;2022-09-09T13:26:56;8.55;;;3.38;;
36815;SDS011;22760;51.910;4.474;2022-09-09T13:29:23;15.48;;;3.85;;
36815;SDS011;22760;51.910;4.474;2022-09-09T13:31:50;5.20;;;2.67;;
36815;SDS011;22760;51.910;4.474;2022-09-09T13:34:26;9.57;;;3.30;;
36815;SDS011;22760;51.910;4.474;2022-09-09T13:36:54;11.27;;;3.20;;
36815;SDS011;22760;51.910;4.474;2022-09-09T13:39:26;6.95;;;3.22;;
36815;SDS011;22760;51.910;4.474;2022-09-09T13:41:53;14.48;;;3.90;;
36815;SDS011;22760;51.910;4.474;2022-09-09T13:44:23;11.35;;;4.47;;
36815;SDS011;22760;51.910;4.474;2022-09-09T13:46:59;16.42;;;4.40;;
36815;SDS011;22760;51.910;4.474;2022-09-09T13:49:28;14.43;;;3.60;;
36815;SDS011;22760;51.910;4.474;2022-09-09T13:52:05;11.77;;;4.20;;
36815;SDS011;22760;51.910;4.474;2022-09-09T13:54:36;13.10;;;4.90;;
36815;SDS011;22760;51.910;4.474;2022-09-09T13:57:03;11.88;;;4.32;;
36815;SDS011;22760;51.910;4.474;2022-09-09T13:59:31;11.65;;;5.50;;
36815;SDS011;22760;51.910;4.474;2022-09-09T14:01:59;12.48;;;5.25;;
36815;SDS011;22760;51.910;4.474;2022-09-09T14:04:26;16.98;;;5.32;;
36815;SDS011;22760;51.910;4.474;2022-09-09T14:06:53;14.65;;;5.55;;
36815;SDS011;22760;51.910;4.474;2022-09-09T14:09:21;19.35;;;5.78;;
36815;SDS011;22760;51.910;4.474;2022-09-09T14:11:48;9.43;;;5.40;;
36815;SDS011;22760;51.910;4.474;2022-09-09T14:14:15;10.68;;;5.57;;
36815;SDS011;22760;51.910;4.474;2022-09-09T14:16:43;9.10;;;4.57;;
36815;SDS011;22760;51.910;4.474;2022-09-09T14:19:10;15.75;;;5.50;;
36815;SDS011;22760;51.910;4.474;2022-09-09T14:21:37;16.95;;;6.32;;
36815;SDS011;22760;51.910;4.474;2022-09-09T14:24:04;14.45;;;6.18;;
36815;SDS011;22760;51.910;4.474;2022-09-09T14:26:31;12.77;;;5.65;;
36815;SDS011;22760;51.910;4.474;2022-09-09T14:28:58;13.30;;;5.47;;
36815;SDS011;22760;51.910;4.474;2022-09-09T14:31:25;12.15;;;5.55;;
36815;SDS011;22760;51.910;4.474;2022-09-09T14:33:53;14.20;;;5.22;;
36815;SDS011;22760;51.910;4.474;2022-09-09T14:36:20;11.02;;;4.97;;
36815;SDS011;22760;51.910;4.474;2022-09-09T14:38:47;14.70;;;4.80;;
36815;SDS011;22760;51.910;4.474;2022-09-09T14:41:15;13.73;;;5.30;;
36815;SDS011;22760;51.910;4.474;2022-09-09T14:43:44;10.18;;;4.13;;
36815;SDS011;22760;51.910;4.474;2022-09-09T14:46:12;14.93;;;3.63;;
36815;SDS011;22760;51.910;4.474;2022-09-09T14:48:40;10.95;;;4.03;;
36815;SDS011;22760;51.910;4.474;2022-09-09T14:51:11;11.43;;;3.40;;
36815;SDS011;22760;51.910;4.474;2022-09-09T14:53:40;8.25;;;3.05;;
36815;SDS011;22760;51.910;4.474;2022-09-09T14:56:08;10.77;;;3.45;;
36815;SDS011;22760;51.910;4.474;2022-09-09T14:58:36;9.32;;;3.28;;
36815;SDS011;22760;51.910;4.474;2022-09-09T15:01:03;10.07;;;3.28;;
36815;SDS011;22760;51.910;4.474;2022-09-09T15:03:31;9.82;;;3.35;;
36815;SDS011;22760;51.910;4.474;2022-09-09T15:05:58;6.50;;;3.10;;
36815;SDS011;22760;51.910;4.474;2022-09-09T15:08:31;8.15;;;3.10;;
36815;SDS011;22760;51.910;4.474;2022-09-09T15:10:59;9.50;;;3.70;;
36815;SDS011;22760;51.910;4.474;2022-09-09T15:13:26;7.57;;;3.60;;
36815;SDS011;22760;51.910;4.474;2022-09-09T15:15:53;13.15;;;3.55;;